Time;durP1;ratioP1;P1;durP2;ratioP2;P2;SDS_P1;SDS_P2;PMS_P1;PMS_P2;Temp;Humidity;BMP_temperature;BMP_pressure;BME280_temperature;BME280_humidity;BME280_pressure;Samples;Min_cycle;Max_cycle;Signal;HPM_P1;HPM_P2
2023/11/14 00:01:55;;;;;;;5.05;2.13;;;20.60;47.20;;;;;;5040482;28;20025;-60
2023/11/14 00:04:20;;;;;;;5.88;1.77;;;20.60;47.20;;;;;;5020865;28;20025;-60
2023/11/14 00:06:46;;;;;;;6.63;1.90;;;20.60;47.30;;;;;;5001392;28;20034;-58
2023/11/14 00:09:13;;;;;;;5.47;1.70;;;20.60;47.30;;;;;;5035046;28;20030;-58
2023/11/14 00:11:40;;;;;;;5.65;1.73;;;20.60;47.30;;;;;;5037879;28;20052;-59
2023/11/14 00:14:06;;;;;;;5.68;2.47;;;20.70;47.40;;;;;;5036132;28;20041;-57
2023/11/14 00:16:32;;;;;;;6.88;2.28;;;20.60;47.40;;;;;;5036185;28;20476;-56
2023/11/14 00:18:58;;;;;;;4.43;1.60;;;20.60;47.40;;;;;;5036290;28;20397;-58
2023/11/14 00:21:24;;;;;;;4.28;1.70;;;20.60;47.40;;;;;;5042378;28;20091;-52
2023/11/14 00:23:50;;;;;;;4.28;1.67;;;20.60;47.40;;;;;;5020207;28;20049;-59
2023/11/14 00:26:16;;;;;;;5.97;1.90;;;20.60;47.40;;;;;;5038319;28;20371;-59
2023/11/14 00:28:48;;;;;;;6.07;2.03;;;20.60;47.50;;;;;;5003335;28;20039;-56
2023/11/14 00:31:15;;;;;;;4.72;1.70;;;20.60;47.50;;;;;;5036514;28;20379;-56
2023/11/14 00:33:41;;;;;;;5.15;1.70;;;20.60;47.50;;;;;;5017238;28;20400;-56
2023/11/14 00:36:07;;;;;;;6.03;2.33;;;20.60;47.50;;;;;;5003598;28;20041;-59
2023/11/14 00:38:34;;;;;;;6.20;1.70;;;20.60;47.50;;;;;;5015211;28;20041;-58
2023/11/14 00:41:00;;;;;;;6.47;2.00;;;20.60;47.50;;;;;;5034055;28;20047;-58
2023/11/14 00:43:26;;;;;;;7.47;1.95;;;20.60;47.50;;;;;;5003325;28;20112;-56
2023/11/14 00:45:52;;;;;;;6.47;1.95;;;20.60;47.50;;;;;;5037967;28;20132;-55
2023/11/14 00:48:18;;;;;;;4.97;1.73;;;20.50;47.50;;;;;;5035197;28;20026;-59
2023/11/14 00:50:44;;;;;;;6.05;1.80;;;20.60;47.50;;;;;;5036257;28;20501;-55
2023/11/14 00:53:10;;;;;;;6.30;2.05;;;20.60;47.50;;;;;;4999941;28;20333;-59
2023/11/14 00:55:36;;;;;;;6.18;2.00;;;20.50;47.50;;;;;;5018269;28;20452;-54
2023/11/14 00:58:02;;;;;;;8.07;2.35;;;20.50;47.50;;;;;;5036912;28;20032;-56
2023/11/14 01:00:28;;;;;;;4.85;1.80;;;20.50;47.50;;;;;;5019764;28;20029;-60
2023/11/14 01:02:59;;;;;;;6.15;1.92;;;20.50;47.50;;;;;;5035029;28;20117;-59
2023/11/14 01:05:26;;;;;;;6.35;1.85;;;20.50;47.50;;;;;;5019680;28;20048;-55
2023/11/14 01:07:53;;;;;;;4.60;1.88;;;20.50;47.50;;;;;;5014699;28;20037;-59
2023/11/14 01:10:19;;;;;;;6.60;2.35;;;20.50;47.50;;;;;;5042124;28;20065;-57
2023/11/14 01:12:45;;;;;;;5.82;1.85;;;20.50;47.50;;;;;;5045089;28;20477;-58
2023/11/14 01:15:12;;;;;;;7.18;2.03;;;20.50;47.50;;;;;;5001853;28;20065;-58
2023/11/14 01:17:38;;;;;;;4.80;1.95;;;20.50;47.50;;;;;;5031895;28;20361;-58
2023/11/14 01:20:05;;;;;;;6.82;1.70;;;20.50;48.00;;;;;;5038103;28;20029;-57
2023/11/14 01:22:32;;;;;;;6.05;2.30;;;20.50;47.50;;;;;;5017953;28;20028;-56
2023/11/14 01:24:58;;;;;;;7.38;2.38;;;20.50;47.50;;;;;;5018156;28;20402;-58
2023/11/14 01:27:24;;;;;;;5.47;2.00;;;20.50;47.50;;;;;;5035304;28;20516;-59
2023/11/14 01:29:51;;;;;;;5.57;2.05;;;20.50;47.50;;;;;;5017051;28;20025;-58
2023/11/14 01:32:17;;;;;;;5.60;1.80;;;20.40;47.50;;;;;;5035855;28;20036;-56
2023/11/14 01:34:43;;;;;;;5.22;1.83;;;20.50;47.50;;;;;;5037276;28;20032;-57
2023/11/14 01:37:09;;;;;;;6.28;2.15;;;20.40;47.50;;;;;;5038096;28;20044;-58
2023/11/14 01:39:35;;;;;;;6.35;2.08;;;20.50;47.50;;;;;;5018964;28;20053;-55
2023/11/14 01:42:01;;;;;;;6.13;2.17;;;20.50;47.60;;;;;;5037213;28;20033;-54
2023/11/14 01:44:27;;;;;;;6.05;2.10;;;20.40;47.50;;;;;;5017377;28;20022;-56
2023/11/14 01:46:54;;;;;;;5.38;1.92;;;20.40;47.50;;;;;;5032421;28;20103;-55
2023/11/14 01:49:21;;;;;;;5.03;1.83;;;20.40;47.50;;;;;;5035631;28;20444;-55
2023/11/14 01:51:47;;;;;;;6.55;2.05;;;20.50;47.50;;;;;;5035403;28;20361;-56
2023/11/14 01:54:14;;;;;;;6.20;2.00;;;20.40;47.50;;;;;;5039649;28;20018;-56
2023/11/14 01:56:42;;;;;;;6.45;1.83;;;20.40;47.50;;;;;;5036642;28;20056;-58
2023/11/14 01:59:08;;;;;;;7.03;1.92;;;20.40;47.50;;;;;;5017738;28;20021;-52
2023/11/14 02:01:34;;;;;;;6.25;2.10;;;20.40;47.50;;;;;;5002171;28;20354;-53
2023/11/14 02:04:10;;;;;;;6.60;2.15;;;20.40;47.50;;;;;;5016120;28;20048;-58
2023/11/14 02:06:36;;;;;;;7.90;2.58;;;20.40;47.60;;;;;;5015237;28;20052;-58
2023/11/14 02:09:03;;;;;;;5.72;2.13;;;20.40;47.50;;;;;;5031565;28;20399;-54
2023/11/14 02:11:29;;;;;;;6.90;2.33;;;20.40;47.50;;;;;;5015990;28;20037;-54
2023/11/14 02:13:55;;;;;;;4.72;1.73;;;20.40;47.60;;;;;;5030899;28;20059;-58
2023/11/14 02:16:23;;;;;;;5.50;1.77;;;20.40;47.60;;;;;;5027242;28;20056;-59
2023/11/14 02:18:49;;;;;;;5.53;1.92;;;20.40;47.60;;;;;;5034218;28;20360;-57
2023/11/14 02:21:16;;;;;;;7.85;1.92;;;20.40;47.60;;;;;;5034694;28;20100;-58
2023/11/14 02:23:48;;;;;;;6.05;1.83;;;20.40;47.70;;;;;;5014999;28;20360;-55
2023/11/14 02:26:14;;;;;;;6.03;1.85;;;20.40;47.60;;;;;;5014448;28;20022;-57
2023/11/14 02:28:40;;;;;;;6.82;1.63;;;20.40;47.70;;;;;;5036083;28;20032;-57
2023/11/14 02:31:06;;;;;;;6.03;2.20;;;20.40;47.70;;;;;;5018604;28;20447;-56
2023/11/14 02:33:33;;;;;;;8.05;2.45;;;20.40;47.70;;;;;;5031253;28;20056;-58
2023/11/14 02:35:59;;;;;;;7.13;2.35;;;20.40;47.70;;;;;;5019925;28;20041;-56
2023/11/14 02:38:25;;;;;;;4.55;1.75;;;20.30;47.70;;;;;;5037784;28;20047;-54
2023/11/14 02:40:51;;;;;;;6.70;2.25;;;20.40;47.80;;;;;;5015892;28;20040;-59
2023/11/14 02:43:17;;;;;;;6.35;1.95;;;20.30;47.80;;;;;;5015727;28;20091;-54
2023/11/14 02:45:43;;;;;;;7.00;1.63;;;20.30;47.80;;;;;;5007371;28;20029;-57
2023/11/14 02:48:09;;;;;;;5.68;1.98;;;20.40;47.80;;;;;;5016811;28;20025;-56
2023/11/14 02:50:50;;;;;;;5.80;1.67;;;20.40;47.90;;;;;;5036352;28;21792;-57
2023/11/14 02:53:19;;;;;;;7.55;2.30;;;20.40;47.90;;;;;;5032200;28;20029;-55
2023/11/14 02:55:46;;;;;;;7.40;2.03;;;20.30;47.90;;;;;;5035372;28;20049;-55
2023/11/14 02:58:12;;;;;;;9.13;3.08;;;20.30;47.90;;;;;;5047102;28;20364;-57
2023/11/14 03:00:45;;;;;;;6.75;2.05;;;20.30;47.90;;;;;;5031559;28;20064;-59
2023/11/14 03:03:12;;;;;;;7.75;2.03;;;20.30;47.90;;;;;;5034035;28;20067;-53
2023/11/14 03:05:38;;;;;;;6.28;2.00;;;20.30;47.90;;;;;;5015947;28;20448;-56
2023/11/14 03:08:05;;;;;;;7.53;2.58;;;20.30;47.90;;;;;;5017153;28;20017;-58
2023/11/14 03:10:31;;;;;;;5.68;2.13;;;20.30;48.00;;;;;;5017011;28;20032;-58
2023/11/14 03:12:58;;;;;;;8.13;1.88;;;20.30;48.00;;;;;;5033490;28;20099;-56
2023/11/14 03:15:26;;;;;;;7.13;2.05;;;20.30;48.00;;;;;;5034657;28;20041;-53
2023/11/14 03:18:01;;;;;;;6.88;2.13;;;20.30;48.00;;;;;;5027546;28;20032;-56
2023/11/14 03:20:28;;;;;;;5.57;2.25;;;20.30;48.00;;;;;;5032336;28;20030;-56
2023/11/14 03:22:55;;;;;;;6.60;1.98;;;20.30;48.10;;;;;;5013333;28;20036;-57
2023/11/14 03:25:22;;;;;;;7.00;2.08;;;20.30;48.10;;;;;;5036233;28;20021;-59
2023/11/14 03:27:49;;;;;;;7.13;1.85;;;20.30;48.10;;;;;;5034606;28;20104;-57
2023/11/14 03:30:15;;;;;;;5.82;1.90;;;20.30;48.10;;;;;;5016487;28;20060;-53
2023/11/14 03:32:41;;;;;;;7.95;2.53;;;20.30;48.20;;;;;;5016936;28;20314;-57
2023/11/14 03:35:07;;;;;;;6.88;2.40;;;20.30;48.20;;;;;;5036947;28;20036;-54
2023/11/14 03:37:34;;;;;;;7.22;2.65;;;20.30;48.30;;;;;;5016451;28;20048;-59
2023/11/14 03:40:01;;;;;;;4.93;1.55;;;20.30;48.30;;;;;;5015927;28;20112;-55
2023/11/14 03:42:27;;;;;;;5.32;2.03;;;20.30;48.30;;;;;;5029623;28;20032;-57
2023/11/14 03:44:53;;;;;;;6.68;2.33;;;20.30;48.30;;;;;;5018113;28;20388;-58
2023/11/14 03:47:19;;;;;;;6.25;1.90;;;20.30;48.30;;;;;;4997001;28;20080;-58
2023/11/14 03:49:45;;;;;;;6.45;2.05;;;20.30;48.30;;;;;;5004235;28;20087;-59
2023/11/14 03:52:11;;;;;;;4.45;1.75;;;20.20;48.30;;;;;;5021156;28;20411;-56
2023/11/14 03:54:37;;;;;;;6.72;2.05;;;20.30;48.40;;;;;;5026081;28;20025;-60
2023/11/14 03:57:03;;;;;;;4.50;1.80;;;20.30;48.40;;;;;;5020290;28;20461;-58
2023/11/14 03:59:29;;;;;;;7.10;2.03;;;20.20;48.30;;;;;;5039902;28;20479;-58
2023/11/14 04:01:55;;;;;;;6.63;2.03;;;20.30;48.50;;;;;;5039751;28;20036;-60
2023/11/14 04:04:21;;;;;;;6.43;2.13;;;20.30;48.40;;;;;;5024239;28;20501;-58
2023/11/14 04:06:47;;;;;;;5.75;2.03;;;20.20;48.40;;;;;;5015434;28;20034;-52
2023/11/14 04:09:13;;;;;;;5.50;2.20;;;20.30;48.40;;;;;;5034227;28;20017;-57
2023/11/14 04:11:49;;;;;;;5.85;1.80;;;20.30;48.50;;;;;;5041052;28;20502;-59
2023/11/14 04:14:16;;;;;;;8.95;2.30;;;20.20;48.40;;;;;;5038715;28;20047;-58
2023/11/14 04:16:42;;;;;;;5.00;1.92;;;20.20;48.50;;;;;;5022120;28;20049;-54
2023/11/14 04:19:09;;;;;;;4.95;1.70;;;20.20;48.50;;;;;;5036773;28;20091;-56
2023/11/14 04:21:35;;;;;;;5.63;2.10;;;20.20;48.50;;;;;;5024975;28;20025;-56
2023/11/14 04:24:01;;;;;;;5.97;2.10;;;20.20;49.10;;;;;;5042071;28;20029;-58
2023/11/14 04:26:26;;;;;;;7.10;2.05;;;20.20;48.50;;;;;;5040843;28;20091;-62
2023/11/14 04:28:53;;;;;;;5.75;2.08;;;20.20;48.60;;;;;;5039025;28;20084;-57
2023/11/14 04:31:19;;;;;;;6.10;2.15;;;20.20;48.60;;;;;;5040771;28;20079;-57
2023/11/14 04:33:45;;;;;;;7.70;2.33;;;20.20;48.60;;;;;;5015664;28;20407;-57
2023/11/14 04:36:13;;;;;;;6.18;2.20;;;20.20;48.60;;;;;;5040299;28;20341;-59
2023/11/14 04:38:40;;;;;;;4.65;1.73;;;20.20;48.60;;;;;;5041860;28;20393;-56
2023/11/14 04:41:05;;;;;;;7.72;2.10;;;20.20;48.60;;;;;;5022276;28;20038;-59
2023/11/14 04:43:32;;;;;;;4.30;1.58;;;20.20;48.60;;;;;;5012744;28;20074;-57
2023/11/14 04:45:58;;;;;;;5.55;1.92;;;20.20;48.60;;;;;;5017313;28;20021;-57
2023/11/14 04:48:24;;;;;;;6.15;1.85;;;20.20;48.60;;;;;;5038484;28;20029;-53
2023/11/14 04:50:50;;;;;;;5.50;2.00;;;20.20;48.60;;;;;;5037343;28;20107;-56
2023/11/14 04:53:16;;;;;;;5.72;2.00;;;20.20;48.60;;;;;;5041305;28;20056;-57
2023/11/14 04:55:42;;;;;;;5.57;1.90;;;20.20;48.60;;;;;;5035918;28;20139;-54
2023/11/14 04:58:08;;;;;;;4.93;1.77;;;20.20;48.60;;;;;;5021341;28;20017;-57
2023/11/14 05:00:34;;;;;;;5.75;1.80;;;20.20;48.60;;;;;;5036086;28;20082;-60
2023/11/14 05:03:05;;;;;;;5.90;2.45;;;20.20;48.60;;;;;;5035294;28;20491;-57
2023/11/14 05:05:35;;;;;;;5.05;1.60;;;20.20;48.60;;;;;;5024642;28;20036;-56
2023/11/14 05:08:01;;;;;;;5.80;1.90;;;20.10;48.50;;;;;;5037000;28;20475;-60
2023/11/14 05:10:27;;;;;;;6.82;1.75;;;20.20;48.60;;;;;;5037316;28;20204;-57
2023/11/14 05:12:53;;;;;;;7.97;2.25;;;20.20;48.60;;;;;;5035847;28;20483;-58
2023/11/14 05:15:19;;;;;;;5.45;2.05;;;20.10;48.50;;;;;;5036385;28;20033;-56
2023/11/14 05:17:45;;;;;;;7.38;1.70;;;20.10;48.50;;;;;;5032418;28;20109;-59
2023/11/14 05:20:13;;;;;;;9.43;2.25;;;20.10;48.60;;;;;;5036359;28;20037;-57
2023/11/14 05:22:39;;;;;;;7.72;2.10;;;20.10;48.60;;;;;;5034420;28;20021;-53
2023/11/14 05:25:09;;;;;;;7.53;2.33;;;20.10;48.60;;;;;;5040695;28;20450;-55
2023/11/14 05:27:38;;;;;;;9.02;2.83;;;20.10;48.60;;;;;;5035684;28;20029;-59
2023/11/14 05:30:09;;;;;;;6.28;2.05;;;20.10;48.60;;;;;;5034929;28;20033;-60
2023/11/14 05:32:35;;;;;;;6.07;1.92;;;20.10;48.60;;;;;;5037588;28;20029;-55
2023/11/14 05:35:02;;;;;;;4.72;1.85;;;20.10;48.60;;;;;;5037471;28;20119;-56
2023/11/14 05:37:28;;;;;;;7.35;2.03;;;20.10;48.60;;;;;;5017790;28;20021;-55
2023/11/14 05:39:55;;;;;;;6.57;1.80;;;20.10;48.60;;;;;;5038429;28;20033;-57
2023/11/14 05:42:21;;;;;;;5.55;1.63;;;20.10;48.60;;;;;;5035033;28;20025;-57
2023/11/14 05:44:50;;;;;;;5.75;1.88;;;20.10;48.60;;;;;;5034512;28;20373;-52
2023/11/14 05:47:17;;;;;;;6.32;1.80;;;20.10;48.60;;;;;;5040218;28;20033;-57
2023/11/14 05:49:43;;;;;;;6.97;2.28;;;20.10;48.60;;;;;;5035363;28;20034;-57
2023/11/14 05:52:10;;;;;;;5.47;1.88;;;20.10;48.60;;;;;;5036490;28;20047;-59
2023/11/14 05:54:37;;;;;;;7.00;2.13;;;20.10;48.60;;;;;;5047681;28;20448;-56
2023/11/14 05:57:03;;;;;;;7.22;1.98;;;20.10;48.70;;;;;;5035483;28;20104;-56
2023/11/14 05:59:28;;;;;;;5.88;2.20;;;20.10;48.70;;;;;;5034018;28;20352;-57
2023/11/14 06:01:55;;;;;;;6.97;2.25;;;20.10;48.70;;;;;;5033974;28;20035;-56
2023/11/14 06:04:21;;;;;;;5.40;1.95;;;20.10;48.70;;;;;;5037284;28;20115;-56
2023/11/14 06:06:48;;;;;;;6.57;2.33;;;20.10;48.70;;;;;;5038118;28;20056;-54
2023/11/14 06:09:14;;;;;;;6.90;2.00;;;20.10;48.70;;;;;;5041629;28;20032;-55
2023/11/14 06:11:40;;;;;;;6.13;1.88;;;20.10;48.80;;;;;;5036996;28;20041;-57
2023/11/14 06:14:06;;;;;;;5.70;1.98;;;20.10;48.80;;;;;;5034621;28;20051;-56
2023/11/14 06:16:32;;;;;;;7.95;2.30;;;20.10;48.80;;;;;;5018292;28;20087;-57
2023/11/14 06:18:58;;;;;;;5.55;2.13;;;20.10;48.80;;;;;;5034411;28;20384;-57
2023/11/14 06:21:24;;;;;;;7.63;2.50;;;20.10;48.80;;;;;;5016328;28;20029;-58
2023/11/14 06:23:53;;;;;;;7.07;2.40;;;20.10;48.80;;;;;;5036718;28;20436;-57
2023/11/14 06:26:19;;;;;;;7.38;2.17;;;20.10;48.80;;;;;;5034598;28;20049;-58
2023/11/14 06:28:45;;;;;;;5.35;2.28;;;20.10;48.90;;;;;;5015698;28;20083;-56
2023/11/14 06:31:11;;;;;;;8.32;2.10;;;20.10;48.90;;;;;;5036348;28;20033;-56
2023/11/14 06:33:37;;;;;;;5.95;1.65;;;20.10;48.90;;;;;;5031473;28;20419;-56
2023/11/14 06:36:04;;;;;;;5.97;2.30;;;20.10;48.90;;;;;;5018080;28;20360;-57
2023/11/14 06:38:30;;;;;;;5.97;2.30;;;20.10;48.90;;;;;;5034770;28;20033;-59
2023/11/14 06:40:56;;;;;;;6.70;2.40;;;20.10;48.90;;;;;;5037540;28;20021;-56
2023/11/14 06:43:21;;;;;;;5.97;2.22;;;20.10;48.90;;;;;;5035722;28;20087;-60
2023/11/14 06:45:47;;;;;;;7.15;2.38;;;20.10;48.90;;;;;;5034581;28;20436;-59
2023/11/14 06:48:13;;;;;;;6.53;2.60;;;20.10;48.90;;;;;;5038355;28;20124;-59
2023/11/14 06:50:40;;;;;;;7.28;2.17;;;20.10;48.90;;;;;;5037889;28;20028;-59
2023/11/14 06:53:10;;;;;;;6.85;2.42;;;20.10;49.00;;;;;;5033715;28;20067;-57
2023/11/14 06:55:36;;;;;;;7.50;1.98;;;20.00;48.90;;;;;;5033263;28;20045;-55
2023/11/14 06:58:01;;;;;;;7.60;2.33;;;20.10;49.00;;;;;;5014323;28;20044;-55
2023/11/14 07:00:27;;;;;;;6.15;2.10;;;20.10;49.00;;;;;;5032189;28;20026;-57
2023/11/14 07:02:53;;;;;;;6.50;2.30;;;20.00;48.90;;;;;;5026900;28;20025;-57
2023/11/14 07:05:19;;;;;;;5.50;2.05;;;20.00;48.90;;;;;;5033238;28;20029;-58
2023/11/14 07:07:46;;;;;;;8.15;2.13;;;20.00;49.00;;;;;;5028093;28;20083;-60
2023/11/14 07:10:13;;;;;;;4.45;1.70;;;20.10;49.00;;;;;;5029392;28;20030;-56
2023/11/14 07:12:40;;;;;;;7.90;2.35;;;20.00;49.00;;;;;;5029641;28;20152;-56
2023/11/14 07:15:06;;;;;;;6.85;2.20;;;20.00;49.00;;;;;;5033193;28;20103;-53
2023/11/14 07:17:33;;;;;;;7.28;2.25;;;20.00;49.00;;;;;;5014556;28;20087;-56
2023/11/14 07:19:59;;;;;;;5.97;2.10;;;20.00;49.00;;;;;;5030828;28;20076;-58
2023/11/14 07:22:25;;;;;;;7.30;2.55;;;20.00;49.00;;;;;;5045789;28;20037;-58
2023/11/14 07:24:52;;;;;;;7.15;2.17;;;20.00;49.10;;;;;;5035618;28;20554;-58
2023/11/14 07:27:18;;;;;;;7.75;2.40;;;20.00;49.10;;;;;;5031395;28;20029;-56
2023/11/14 07:29:45;;;;;;;5.35;1.83;;;20.00;49.10;;;;;;5030827;28;20660;-55
2023/11/14 07:32:11;;;;;;;7.68;2.00;;;20.00;49.10;;;;;;5031202;28;20029;-59
2023/11/14 07:34:37;;;;;;;6.22;2.00;;;20.00;49.10;;;;;;5013985;28;20095;-58
2023/11/14 07:37:03;;;;;;;8.68;2.03;;;20.00;49.10;;;;;;5030109;28;20044;-55
2023/11/14 07:39:29;;;;;;;9.48;1.90;;;20.00;49.10;;;;;;5029923;28;20029;-55
2023/11/14 07:41:56;;;;;;;5.85;1.92;;;20.00;49.10;;;;;;5035805;28;20387;-54
2023/11/14 07:44:22;;;;;;;5.22;1.90;;;20.00;49.10;;;;;;5013991;28;20115;-59
2023/11/14 07:46:48;;;;;;;5.72;2.13;;;20.00;49.20;;;;;;5033133;28;20031;-59
2023/11/14 07:49:14;;;;;;;5.65;2.17;;;20.00;49.20;;;;;;5031059;28;20033;-58
2023/11/14 07:51:40;;;;;;;6.97;2.40;;;20.00;49.20;;;;;;5031143;28;20532;-53
2023/11/14 07:54:06;;;;;;;7.70;2.38;;;20.00;49.30;;;;;;5030822;28;20022;-54
2023/11/14 07:56:32;;;;;;;5.82;1.77;;;20.10;49.30;;;;;;5031278;28;20033;-53
2023/11/14 07:58:58;;;;;;;6.15;2.13;;;20.00;49.30;;;;;;5011898;28;20141;-56
2023/11/14 08:01:24;;;;;;;5.47;2.05;;;20.00;49.30;;;;;;5038259;28;20399;-58
2023/11/14 08:03:50;;;;;;;5.65;2.22;;;20.00;49.30;;;;;;5043721;28;20025;-55
2023/11/14 08:06:16;;;;;;;6.57;2.30;;;20.00;49.30;;;;;;5043484;28;20044;-57
2023/11/14 08:08:44;;;;;;;7.72;2.08;;;20.00;49.30;;;;;;5030386;28;20332;-58
2023/11/14 08:11:10;;;;;;;4.43;1.98;;;20.00;49.40;;;;;;5030369;28;20034;-56
2023/11/14 08:13:37;;;;;;;6.75;2.22;;;20.00;49.40;;;;;;5029308;28;20099;-55
2023/11/14 08:16:03;;;;;;;5.55;2.00;;;20.00;49.40;;;;;;5040783;28;20040;-53
2023/11/14 08:18:29;;;;;;;7.22;1.95;;;20.00;49.50;;;;;;5029874;28;20033;-56
2023/11/14 08:20:56;;;;;;;6.45;2.15;;;20.00;49.50;;;;;;5043409;28;20021;-58
2023/11/14 08:23:22;;;;;;;7.13;2.20;;;20.00;49.50;;;;;;5054132;28;20479;-57
2023/11/14 08:25:47;;;;;;;6.75;2.13;;;20.00;49.60;;;;;;5027466;28;20029;-55
2023/11/14 08:28:13;;;;;;;7.80;2.20;;;20.00;49.60;;;;;;5038520;28;20453;-53
2023/11/14 08:30:40;;;;;;;7.13;2.00;;;20.00;49.70;;;;;;5035302;28;20088;-55
2023/11/14 08:33:07;;;;;;;5.90;1.88;;;20.00;49.70;;;;;;5033288;28;20113;-54
2023/11/14 08:35:33;;;;;;;5.53;2.00;;;20.00;49.70;;;;;;5034138;28;20127;-55
2023/11/14 08:37:59;;;;;;;7.28;2.22;;;20.10;49.70;;;;;;5034272;28;20045;-55
2023/11/14 08:40:26;;;;;;;6.95;2.00;;;20.10;50.30;;;;;;5036443;28;20108;-58
2023/11/14 08:42:53;;;;;;;6.97;2.00;;;20.10;49.70;;;;;;5035204;28;20128;-58
2023/11/14 08:45:19;;;;;;;6.53;2.13;;;20.10;49.70;;;;;;5015290;28;20314;-56
2023/11/14 08:47:45;;;;;;;5.32;2.13;;;20.10;49.70;;;;;;5034765;28;20033;-57
2023/11/14 08:50:12;;;;;;;5.20;1.90;;;20.10;49.70;;;;;;5018650;28;20400;-53
2023/11/14 08:52:40;;;;;;;7.00;2.05;;;20.10;49.70;;;;;;5037656;28;20037;-57
2023/11/14 08:55:06;;;;;;;4.90;1.73;;;20.10;49.70;;;;;;5036921;28;20091;-57
2023/11/14 08:57:32;;;;;;;8.27;2.63;;;20.10;49.70;;;;;;5034443;28;20045;-58
2023/11/14 08:59:59;;;;;;;9.40;2.20;;;20.10;49.70;;;;;;5036605;28;20060;-58
2023/11/14 09:02:25;;;;;;;8.65;2.10;;;20.10;49.70;;;;;;5034471;28;20503;-56
2023/11/14 09:04:51;;;;;;;5.15;1.92;;;20.20;49.80;;;;;;5035454;28;20029;-56
2023/11/14 09:07:17;;;;;;;5.25;1.70;;;20.20;49.80;;;;;;5017203;28;20021;-57
2023/11/14 09:09:44;;;;;;;8.65;2.70;;;20.20;49.80;;;;;;5057692;28;20091;-56
2023/11/14 09:12:10;;;;;;;7.57;1.85;;;20.20;49.80;;;;;;5039201;28;20494;-55
2023/11/14 09:14:37;;;;;;;6.57;1.90;;;20.20;49.80;;;;;;5043112;28;20050;-51
2023/11/14 09:17:04;;;;;;;7.05;1.90;;;20.20;49.80;;;;;;5029914;28;20041;-54
2023/11/14 09:19:31;;;;;;;4.72;1.95;;;20.30;50.00;;;;;;5035734;28;20448;-51
2023/11/14 09:21:58;;;;;;;4.97;2.05;;;20.30;50.00;;;;;;5037956;28;20057;-54
2023/11/14 09:24:24;;;;;;;5.47;2.05;;;20.30;50.10;;;;;;5037784;28;20026;-56
2023/11/14 09:26:50;;;;;;;8.20;2.35;;;20.30;50.10;;;;;;5036025;28;20116;-55
2023/11/14 09:29:16;;;;;;;5.07;1.85;;;20.30;50.20;;;;;;5037566;28;20119;-57
2023/11/14 09:31:42;;;;;;;6.25;2.17;;;20.40;50.30;;;;;;5035618;28;20116;-55
2023/11/14 09:34:09;;;;;;;7.18;1.98;;;20.40;50.40;;;;;;5032446;28;20021;-57
2023/11/14 09:36:35;;;;;;;5.00;1.52;;;20.40;50.30;;;;;;5037246;28;20044;-57
2023/11/14 09:39:01;;;;;;;6.32;2.00;;;20.40;50.30;;;;;;5035327;28;20452;-56
2023/11/14 09:41:27;;;;;;;5.72;1.90;;;20.40;50.20;;;;;;5019618;28;20029;-54
2023/11/14 09:43:53;;;;;;;6.45;2.13;;;20.50;50.30;;;;;;5036490;28;20044;-59
2023/11/14 09:46:19;;;;;;;6.13;2.00;;;20.40;50.20;;;;;;5046222;28;20085;-59
2023/11/14 09:48:45;;;;;;;6.10;2.30;;;20.40;50.10;;;;;;5037201;28;20029;-56
2023/11/14 09:51:13;;;;;;;5.22;2.00;;;20.50;50.20;;;;;;5056862;28;20036;-53
2023/11/14 09:53:41;;;;;;;6.28;2.00;;;20.50;50.10;;;;;;5035318;28;20470;-57
2023/11/14 09:56:07;;;;;;;6.78;2.10;;;20.50;50.10;;;;;;5035020;28;20052;-54
2023/11/14 09:58:33;;;;;;;6.35;1.98;;;20.50;50.10;;;;;;5036086;28;20094;-59
2023/11/14 10:01:00;;;;;;;6.32;2.15;;;20.60;50.20;;;;;;5052844;28;20033;-59
2023/11/14 10:03:28;;;;;;;7.28;2.22;;;20.50;50.10;;;;;;5040310;28;20141;-54
2023/11/14 10:05:54;;;;;;;6.95;2.13;;;20.60;50.20;;;;;;5036313;28;20057;-57
2023/11/14 10:08:21;;;;;;;6.68;2.25;;;20.60;50.20;;;;;;5032289;28;20416;-59
2023/11/14 10:11:06;;;;;;;7.38;2.05;;;20.60;50.10;;;;;;5031737;28;20025;-53
2023/11/14 10:13:31;;;;;;;;;;;20.70;50.20;;;;;;5021109;28;20102;-54
2023/11/14 10:16:18;;;;;;;4.78;1.83;;;20.70;50.10;;;;;;5041524;28;20352;-57
2023/11/14 10:18:48;;;;;;;5.10;1.75;;;20.70;50.00;;;;;;5037163;28;20087;-58
2023/11/14 10:21:31;;;;;;;6.95;2.03;;;20.80;50.00;;;;;;5046779;28;20087;-53
2023/11/14 10:23:58;;;;;;;4.75;1.83;;;20.80;49.90;;;;;;5051478;28;20033;-59
2023/11/14 10:26:25;;;;;;;7.55;2.40;;;20.80;49.90;;;;;;5048867;28;20048;-58
2023/11/14 10:28:54;;;;;;;4.85;1.88;;;20.80;49.90;;;;;;5048334;28;20060;-54
2023/11/14 10:31:40;;;;;;;6.40;2.20;;;20.90;49.90;;;;;;5049166;28;20104;-55
2023/11/14 10:34:08;;;;;;;7.30;2.30;;;20.80;49.80;;;;;;5046382;28;20021;-56
2023/11/14 10:36:46;;;;;;;6.40;2.13;;;20.80;49.80;;;;;;5045975;28;20136;-59
2023/11/14 10:39:13;;;;;;;5.95;2.05;;;20.90;49.80;;;;;;5049412;28;20025;-54
2023/11/14 10:41:39;;;;;;;5.03;2.10;;;20.90;49.80;;;;;;5048878;28;20051;-57
2023/11/14 10:44:06;;;;;;;5.75;2.13;;;20.80;49.70;;;;;;5049768;28;20100;-54
2023/11/14 10:46:33;;;;;;;5.43;2.10;;;20.80;49.80;;;;;;5028585;28;20032;-56
2023/11/14 10:49:09;;;;;;;5.88;2.17;;;20.90;49.70;;;;;;5029061;28;20025;-55
2023/11/14 10:51:36;;;;;;;5.63;2.20;;;20.80;49.60;;;;;;5047629;28;20025;-55
2023/11/14 10:54:06;;;;;;;8.27;2.50;;;20.80;49.60;;;;;;5049102;28;20021;-54
2023/11/14 10:56:37;;;;;;;6.78;2.08;;;20.90;49.60;;;;;;5027751;28;20136;-53
2023/11/14 10:59:15;;;;;;;5.45;2.10;;;20.80;49.50;;;;;;5048030;28;20513;-57
2023/11/14 11:01:46;;;;;;;7.40;2.40;;;20.90;49.50;;;;;;5044954;28;20112;-54
2023/11/14 11:04:18;;;;;;;6.28;2.15;;;20.80;49.50;;;;;;5042611;28;20356;-56
2023/11/14 11:06:45;;;;;;;7.03;2.03;;;20.80;49.50;;;;;;5038089;28;20322;-56
2023/11/14 11:09:13;;;;;;;6.55;2.45;;;20.80;49.40;;;;;;5039934;28;20028;-52
2023/11/14 11:11:48;;;;;;;5.65;2.20;;;20.80;49.40;;;;;;5031042;28;20076;-56
2023/11/14 11:14:16;;;;;;;6.32;1.73;;;20.80;49.30;;;;;;5042390;28;20124;-56
2023/11/14 11:16:53;;;;;;;6.93;2.67;;;20.80;50.00;;;;;;5041378;28;20455;-53
2023/11/14 11:19:23;;;;;;;6.43;1.80;;;20.80;49.30;;;;;;5036751;28;20025;-58
2023/11/14 11:22:06;;;;;;;7.45;2.58;;;20.80;49.30;;;;;;5041175;28;20078;-57
2023/11/14 11:24:33;;;;;;;8.50;2.58;;;20.80;49.60;;;;;;5044417;28;20056;-58
2023/11/14 11:27:20;;;;;;;6.03;2.35;;;20.80;49.30;;;;;;5048545;28;20028;-52
2023/11/14 11:29:59;;;;;;;6.43;2.00;;;20.80;49.30;;;;;;5044775;28;20052;-58
2023/11/14 11:32:34;;;;;;;6.30;1.77;;;20.80;49.30;;;;;;5033200;28;20395;-50
2023/11/14 11:35:19;;;;;;;4.40;1.85;;;20.80;49.40;;;;;;5031982;28;20053;-50
2023/11/14 11:37:56;;;;;;;8.50;2.35;;;20.80;49.50;;;;;;5031113;28;20044;-56
2023/11/14 11:40:25;;;;;;;7.15;2.00;;;20.80;49.50;;;;;;5030849;28;20417;-60
2023/11/14 11:42:53;;;;;;;7.30;2.17;;;20.80;49.50;;;;;;5040120;28;20344;-53
2023/11/14 11:45:29;;;;;;;6.95;2.08;;;20.90;49.70;;;;;;5040579;28;20408;-54
2023/11/14 11:47:58;;;;;;;6.55;2.28;;;20.90;49.70;;;;;;5022804;28;20046;-60
2023/11/14 11:50:32;;;;;;;5.47;1.92;;;20.90;49.60;;;;;;5041179;28;20469;-57
2023/11/14 11:53:06;;;;;;;6.15;2.35;;;21.00;49.60;;;;;;5039193;28;20103;-56
2023/11/14 11:55:35;;;;;;;6.47;2.55;;;21.00;49.50;;;;;;5044899;28;20363;-55
2023/11/14 11:58:03;;;;;;;7.18;2.35;;;21.10;49.50;;;;;;5011138;28;20036;-60
2023/11/14 12:00:30;;;;;;;6.03;2.25;;;21.10;49.40;;;;;;5049607;28;20325;-58
2023/11/14 12:02:59;;;;;;;7.97;2.45;;;21.20;49.40;;;;;;5039011;28;20021;-60
2023/11/14 12:05:28;;;;;;;6.57;2.60;;;21.20;49.30;;;;;;5025520;28;20035;-61
2023/11/14 12:07:58;;;;;;;6.03;2.55;;;21.30;49.30;;;;;;5036798;28;20033;-61
2023/11/14 12:10:27;;;;;;;7.57;2.10;;;21.30;49.20;;;;;;5033964;28;20029;-57
2023/11/14 12:12:57;;;;;;;8.75;2.35;;;21.30;49.10;;;;;;5013542;28;20045;-57
2023/11/14 12:15:24;;;;;;;5.10;1.85;;;21.40;49.10;;;;;;5019160;28;20061;-53
2023/11/14 12:17:52;;;;;;;6.50;1.80;;;21.40;49.10;;;;;;5031382;28;20022;-57
2023/11/14 12:20:19;;;;;;;10.45;1.95;;;21.40;49.00;;;;;;5011073;28;20036;-53
2023/11/14 12:22:49;;;;;;;6.43;2.42;;;21.40;49.00;;;;;;5030083;28;20492;-57
2023/11/14 12:25:17;;;;;;;6.55;1.88;;;21.50;49.00;;;;;;5042464;28;20025;-56
2023/11/14 12:27:56;;;;;;;6.97;2.00;;;21.50;49.20;;;;;;5034435;28;20029;-54
2023/11/14 12:30:22;;;;;;;6.65;1.90;;;21.50;49.00;;;;;;5034115;28;20112;-59
2023/11/14 12:33:07;;;;;;;4.85;1.75;;;21.60;49.00;;;;;;5019980;28;20082;-55
2023/11/14 12:35:55;;;;;;;3.95;1.40;;;21.60;49.00;;;;;;5039370;28;20305;-57
2023/11/14 12:38:34;;;;;;;5.22;1.75;;;21.60;49.00;;;;;;5047839;28;20451;-57
2023/11/14 12:41:26;;;;;;;6.88;2.28;;;21.60;49.00;;;;;;5039991;28;20057;-58
2023/11/14 12:43:57;;;;;;;6.28;2.25;;;21.60;49.00;;;;;;5039892;28;20025;-59
2023/11/14 12:46:25;;;;;;;5.13;1.60;;;21.60;49.00;;;;;;5025069;28;20037;-59
2023/11/14 12:49:17;;;;;;;3.60;1.48;;;21.70;49.10;;;;;;5047925;28;20025;-57
2023/11/14 12:51:47;;;;;;;7.20;1.67;;;21.70;49.10;;;;;;5031962;28;20191;-59